createdAt,value
2018-02-20T00:01:02.328Z,-0.01
2018-02-20T00:03:31.126Z,0.01
2018-02-20T00:05:59.917Z,-0.05
2018-02-20T00:08:29.088Z,-0.05
2018-02-20T00:10:57.899Z,-0.07
2018-02-20T00:13:26.756Z,-0.02
2018-02-20T00:15:55.663Z,-0.06
2018-02-20T00:18:24.452Z,-0.13
2018-02-20T00:20:53.326Z,-0.10
2018-02-20T00:23:22.208Z,-0.08
2018-02-20T00:25:51.036Z,-0.03
2018-02-20T00:28:19.838Z,0.03
2018-02-20T00:30:48.728Z,0.05
2018-02-20T00:33:17.809Z,0.09
2018-02-20T00:35:46.916Z,0.09
2018-02-20T00:38:15.756Z,0.09
2018-02-20T00:40:44.589Z,0.07
2018-02-20T00:43:13.379Z,0.08
2018-02-20T00:45:42.245Z,0.01
2018-02-20T00:48:11.411Z,0.03
2018-02-20T00:50:40.242Z,0.01
2018-02-20T00:53:09.474Z,-0.03
2018-02-20T00:55:38.288Z,-0.01
2018-02-20T00:58:07.215Z,-0.02
2018-02-20T01:00:36.364Z,-0.01
2018-02-20T01:03:05.875Z,0.05
2018-02-20T01:05:35.032Z,0.06
2018-02-20T01:08:03.885Z,0.07
2018-02-20T01:10:32.705Z,-0.01
2018-02-20T01:13:01.503Z,0.01
2018-02-20T01:15:30.629Z,0.06
2018-02-20T01:17:59.449Z,0.07
2018-02-20T01:20:28.541Z,0.03
2018-02-20T01:22:57.377Z,-0.02
2018-02-20T01:25:26.700Z,-0.05
2018-02-20T01:27:55.868Z,-0.03
2018-02-20T01:30:25.010Z,-0.06
2018-02-20T01:32:54.165Z,-0.05
2018-02-20T01:35:23.505Z,-0.06
2018-02-20T01:37:52.635Z,-0.08
2018-02-20T01:40:21.814Z,-0.07
2018-02-20T01:42:51.023Z,-0.06
2018-02-20T01:45:20.176Z,-0.07
2018-02-20T01:47:50.607Z,-0.07
2018-02-20T01:50:20.981Z,-0.11
2018-02-20T01:52:51.501Z,-0.10
2018-02-20T01:55:30.027Z,-0.15
2018-02-20T01:57:59.143Z,-0.18
2018-02-20T02:00:28.424Z,-0.22
2018-02-20T02:02:57.574Z,-0.21
2018-02-20T02:05:27.207Z,-0.22
2018-02-20T02:07:57.928Z,-0.22
2018-02-20T02:10:27.720Z,-0.22
2018-02-20T02:12:58.345Z,-0.21
2018-02-20T02:15:29.147Z,-0.19
2018-02-20T02:18:01.600Z,-0.24
2018-02-20T02:20:32.104Z,-0.29
2018-02-20T02:23:02.749Z,-0.24
2018-02-20T02:25:33.345Z,-0.21
2018-02-20T02:28:05.199Z,-0.25
2018-02-20T02:30:35.564Z,-0.34
2018-02-20T02:33:06.193Z,-0.39
2018-02-20T02:35:37.472Z,-0.44
2018-02-20T02:38:08.234Z,-0.49
2018-02-20T02:40:38.726Z,-0.53
2018-02-20T02:43:09.404Z,-0.51
2018-02-20T02:45:40.642Z,-0.55
2018-02-20T02:48:12.110Z,-0.57
2018-02-20T02:50:42.655Z,-0.54
2018-02-20T02:53:13.980Z,-0.55
2018-02-20T02:55:45.317Z,-0.58
2018-02-20T02:58:16.015Z,-0.67
2018-02-20T03:00:46.562Z,-0.75
2018-02-20T03:03:17.923Z,-0.81
2018-02-20T03:05:48.247Z,-0.93
2018-02-20T03:08:19.008Z,-0.89
2018-02-20T03:10:49.507Z,-0.94
2018-02-20T03:13:22.061Z,-0.89
2018-02-20T03:15:52.427Z,-0.95
2018-02-20T03:18:23.318Z,-0.90
2018-02-20T03:20:53.668Z,-0.91
2018-02-20T03:23:24.272Z,-0.97
2018-02-20T03:25:55.736Z,-0.96
2018-02-20T03:28:26.049Z,-0.92
2018-02-20T03:30:57.900Z,-0.90
2018-02-20T03:33:28.447Z,-0.80
2018-02-20T03:35:59.313Z,-0.81
2018-02-20T03:38:29.895Z,-0.76
2018-02-20T03:41:00.463Z,-0.73
2018-02-20T03:43:31.067Z,-0.68
2018-02-20T03:46:01.298Z,-0.71
2018-02-20T03:48:32.258Z,-0.68
2018-02-20T03:51:03.478Z,-0.70
2018-02-20T03:53:34.959Z,-0.72
2018-02-20T03:56:05.443Z,-0.73
2018-02-20T03:58:36.242Z,-0.74
2018-02-20T04:01:06.389Z,-0.75
2018-02-20T04:03:37.861Z,-0.79
2018-02-20T04:06:08.573Z,-0.80
2018-02-20T04:08:39.219Z,-0.84
2018-02-20T04:11:11.148Z,-0.82
2018-02-20T04:13:40.967Z,-0.80
2018-02-20T04:16:12.088Z,-0.79
2018-02-20T04:18:43.257Z,-0.81
2018-02-20T04:21:14.867Z,-0.81
2018-02-20T04:23:45.400Z,-0.81
2018-02-20T04:26:15.983Z,-0.80
2018-02-20T04:28:47.041Z,-0.83
2018-02-20T04:31:18.598Z,-0.82
2018-02-20T04:33:49.148Z,-0.82
2018-02-20T04:36:19.612Z,-0.84
2018-02-20T04:38:50.784Z,-0.85
2018-02-20T04:41:21.188Z,-0.85
2018-02-20T04:43:52.084Z,-0.87
2018-02-20T04:46:23.987Z,-0.89
2018-02-20T04:48:54.401Z,-0.91
2018-02-20T04:51:25.888Z,-0.92
2018-02-20T04:53:57.139Z,-0.94
2018-02-20T04:56:26.781Z,-0.93
2018-02-20T04:58:57.643Z,-0.94
2018-02-20T05:01:28.850Z,-0.98
2018-02-20T05:04:00.415Z,-0.96
2018-02-20T05:09:08.941Z,-1.00
2018-02-20T05:11:38.039Z,-1.04
2018-02-20T05:14:07.127Z,-1.03
2018-02-20T05:16:39.467Z,-1.02
2018-02-20T05:19:08.558Z,-1.02
2018-02-20T05:21:37.652Z,-1.02
2018-02-20T05:24:08.120Z,-1.01
2018-02-20T05:26:38.326Z,-1.04
2018-02-20T05:29:09.327Z,-1.07
2018-02-20T05:31:39.796Z,-1.03
2018-02-20T05:34:11.460Z,-1.04
2018-02-20T05:36:42.871Z,-1.05
2018-02-20T05:39:13.727Z,-1.06
2018-02-20T05:41:43.248Z,-1.05
2018-02-20T05:44:14.700Z,-1.04
2018-02-20T05:46:45.257Z,-1.11
2018-02-20T05:49:16.041Z,-1.11
2018-02-20T05:51:46.909Z,-1.13
2018-02-20T05:54:17.121Z,-1.17
2018-02-20T05:56:47.512Z,-1.16
2018-02-20T05:59:18.461Z,-1.21
2018-02-20T06:01:51.879Z,-1.23
2018-02-20T06:04:21.454Z,-1.18
2018-02-20T06:06:51.587Z,-1.15
2018-02-20T06:09:22.583Z,-1.17
2018-02-20T06:11:52.995Z,-1.17
2018-02-20T06:14:23.968Z,-1.20
2018-02-20T06:16:54.862Z,-1.14
2018-02-20T06:19:26.432Z,-1.09
2018-02-20T06:21:57.962Z,-1.05
2018-02-20T06:24:29.506Z,-1.05
2018-02-20T06:26:59.328Z,-1.03
2018-02-20T06:29:30.017Z,-1.03
2018-02-20T06:32:00.535Z,-1.00
2018-02-20T06:34:31.075Z,-1.02
2018-02-20T06:37:01.946Z,-0.97
2018-02-20T06:39:32.651Z,-0.94
2018-02-20T06:42:04.079Z,-0.91
2018-02-20T06:44:35.067Z,-0.87
2018-02-20T06:47:05.692Z,-0.84
2018-02-20T06:49:36.579Z,-0.80
2018-02-20T06:52:07.100Z,-0.77
2018-02-20T06:54:37.926Z,-0.77
2018-02-20T06:57:08.763Z,-0.84
2018-02-20T06:59:39.711Z,-0.86
2018-02-20T07:02:10.611Z,-0.80
2018-02-20T07:04:42.039Z,-0.76
2018-02-20T07:07:12.938Z,-0.76
2018-02-20T07:09:44.000Z,-0.72
2018-02-20T07:12:14.836Z,-0.68
2018-02-20T07:14:45.621Z,-0.68
2018-02-20T07:17:15.968Z,-0.68
2018-02-20T07:19:46.927Z,-0.62
2018-02-20T07:22:17.775Z,-0.60
2018-02-20T07:24:48.692Z,-0.55
2018-02-20T07:27:19.285Z,-0.50
2018-02-20T07:29:50.904Z,-0.46
2018-02-20T07:32:21.755Z,-0.57
2018-02-20T07:34:52.086Z,-0.48
2018-02-20T07:37:22.515Z,-0.45
2018-02-20T07:39:53.283Z,-0.49
2018-02-20T07:42:24.195Z,-0.47
2018-02-20T07:44:55.185Z,-0.35
2018-02-20T07:47:26.423Z,-0.36
2018-02-20T07:49:57.473Z,-0.34
2018-02-20T07:52:27.144Z,-0.33
2018-02-20T07:54:58.808Z,-0.27
2018-02-20T07:57:29.332Z,-0.22
2018-02-20T08:00:00.197Z,-0.21
2018-02-20T08:02:31.475Z,-0.20
2018-02-20T08:05:02.312Z,-0.19
2018-02-20T08:07:33.203Z,-0.09
2018-02-20T08:10:04.238Z,0.04
2018-02-20T08:12:34.817Z,0.17
2018-02-20T08:15:06.480Z,0.22
2018-02-20T08:17:37.904Z,0.32
2018-02-20T08:20:08.799Z,0.38
2018-02-20T08:22:39.647Z,0.46
2018-02-20T08:25:10.629Z,0.52
2018-02-20T08:27:42.465Z,0.67
2018-02-20T08:30:12.911Z,0.72
2018-02-20T08:32:43.739Z,0.82
2018-02-20T08:35:14.689Z,0.84
2018-02-20T08:37:45.560Z,0.97
2018-02-20T08:40:16.943Z,1.01
2018-02-20T08:42:47.789Z,1.01
2018-02-20T08:45:18.693Z,1.06
2018-02-20T08:47:49.556Z,1.14
2018-02-20T08:50:20.903Z,1.24
2018-02-20T08:52:51.771Z,1.32
2018-02-20T08:55:22.649Z,1.41
2018-02-20T08:57:53.896Z,1.56
2018-02-20T09:00:24.804Z,1.61
2018-02-20T09:02:55.614Z,1.58
2018-02-20T09:05:26.983Z,1.72
2018-02-20T09:07:57.721Z,1.81
2018-02-20T09:10:28.687Z,1.97
2018-02-20T09:12:59.182Z,2.07
2018-02-20T09:15:29.912Z,2.17
2018-02-20T09:18:00.733Z,2.19
2018-02-20T09:20:31.685Z,2.35
2018-02-20T09:23:03.034Z,2.40
2018-02-20T09:25:33.989Z,2.47
2018-02-20T09:28:04.807Z,2.56
2018-02-20T09:30:35.681Z,2.61
2018-02-20T09:33:07.096Z,3.04
2018-02-20T09:35:37.860Z,4.22
2018-02-20T09:38:08.171Z,4.96
2018-02-20T09:40:38.618Z,5.13
2018-02-20T09:43:09.184Z,4.74
2018-02-20T09:45:40.658Z,4.58
2018-02-20T09:48:11.953Z,4.34
2018-02-20T09:50:43.484Z,4.20
2018-02-20T09:53:14.257Z,4.19
2018-02-20T09:55:45.191Z,4.15
2018-02-20T09:58:14.756Z,4.00
2018-02-20T10:00:45.279Z,3.94
2018-02-20T10:03:16.846Z,3.91
2018-02-20T10:05:47.733Z,3.92
2018-02-20T10:08:21.911Z,3.85
2018-02-20T10:10:51.509Z,3.85
2018-02-20T10:13:21.155Z,3.78
2018-02-20T10:15:52.866Z,3.79
2018-02-20T10:18:23.368Z,4.00
2018-02-20T10:20:54.042Z,4.12
2018-02-20T10:23:24.834Z,4.05
2018-02-20T10:25:56.258Z,4.14
2018-02-20T10:28:27.003Z,4.30
2018-02-20T10:30:57.915Z,4.45
2018-02-20T10:33:29.157Z,4.61
2018-02-20T10:35:59.856Z,4.75
2018-02-20T10:38:30.700Z,4.64
2018-02-20T10:41:01.080Z,4.62
2018-02-20T10:43:31.536Z,4.62
2018-02-20T10:46:02.243Z,4.66
2018-02-20T10:48:33.117Z,4.74
2018-02-20T10:51:03.868Z,4.74
2018-02-20T10:53:34.378Z,4.82
2018-02-20T10:56:04.152Z,4.96
2018-02-20T10:58:34.780Z,5.11
2018-02-20T11:01:06.057Z,5.30
2018-02-20T11:03:39.160Z,5.43
2018-02-20T11:06:09.694Z,5.56
2018-02-20T11:08:40.506Z,5.44
2018-02-20T11:11:11.152Z,5.42
2018-02-20T11:13:42.380Z,5.53
2018-02-20T11:16:13.230Z,5.55
2018-02-20T11:18:44.111Z,5.68
2018-02-20T11:21:14.582Z,5.95
2018-02-20T11:23:45.189Z,6.11
2018-02-20T11:26:16.469Z,6.24
2018-02-20T11:28:47.107Z,6.42
2018-02-20T11:31:18.463Z,6.57
2018-02-20T11:33:49.831Z,6.63
2018-02-20T11:36:20.717Z,6.70
2018-02-20T11:38:51.608Z,6.90
2018-02-20T11:41:26.277Z,7.21
2018-02-20T11:43:55.369Z,7.25
2018-02-20T11:46:25.221Z,7.33
2018-02-20T11:48:55.953Z,7.72
2018-02-20T11:51:27.346Z,7.79
2018-02-20T11:53:57.996Z,7.94
2018-02-20T11:56:28.841Z,8.13
2018-02-20T11:58:59.720Z,8.32
2018-02-20T12:01:30.761Z,8.45
2018-02-20T12:04:01.320Z,8.49
2018-02-20T12:06:31.509Z,8.44
2018-02-20T12:09:02.061Z,8.47
2018-02-20T12:11:32.848Z,8.48
2018-02-20T12:14:03.806Z,8.67
2018-02-20T12:16:34.806Z,8.86
2018-02-20T12:19:05.620Z,8.91
2018-02-20T12:21:36.171Z,9.04
2018-02-20T12:24:06.824Z,9.06
2018-02-20T12:26:37.303Z,9.17
2018-02-20T12:29:07.946Z,9.24
2018-02-20T12:31:38.737Z,9.27
2018-02-20T12:34:09.616Z,9.37
2018-02-20T12:36:40.568Z,9.29
2018-02-20T12:39:11.928Z,9.44
2018-02-20T12:41:42.777Z,9.40
2018-02-20T12:44:13.728Z,9.12
2018-02-20T12:46:44.520Z,9.25
2018-02-20T12:49:15.887Z,9.21
2018-02-20T12:51:46.704Z,9.14
2018-02-20T12:54:17.636Z,9.03
2018-02-20T12:56:48.960Z,9.07
2018-02-20T12:59:19.833Z,9.03
2018-02-20T13:01:50.958Z,9.15
2018-02-20T13:04:21.847Z,9.06
2018-02-20T13:06:52.748Z,8.95
2018-02-20T13:09:23.288Z,8.95
2018-02-20T13:11:53.887Z,8.84
2018-02-20T13:14:24.758Z,8.52
2018-02-20T13:16:55.593Z,8.30
2018-02-20T13:19:26.925Z,8.21
2018-02-20T13:21:57.388Z,8.05
2018-02-20T13:24:27.800Z,7.86
2018-02-20T13:26:58.342Z,7.66
2018-02-20T13:29:29.002Z,7.40
2018-02-20T13:31:59.832Z,7.51
2018-02-20T13:34:30.759Z,7.48
2018-02-20T13:37:01.616Z,7.30
2018-02-20T13:39:32.598Z,7.19
2018-02-20T13:42:03.879Z,7.36
2018-02-20T13:44:39.966Z,7.36
2018-02-20T13:47:09.061Z,7.39
2018-02-20T13:49:38.186Z,7.37
2018-02-20T13:52:08.755Z,7.56
2018-02-20T13:54:39.199Z,7.73
2018-02-20T13:57:09.898Z,7.96
2018-02-20T13:59:41.090Z,7.99
2018-02-20T14:02:11.911Z,7.96
2018-02-20T14:04:43.143Z,8.15
2018-02-20T14:07:13.664Z,8.26
2018-02-20T14:09:44.123Z,8.39
2018-02-20T14:12:14.992Z,8.21
2018-02-20T14:14:45.807Z,8.14
2018-02-20T14:17:16.692Z,8.20
2018-02-20T14:19:47.723Z,8.36
2018-02-20T14:22:19.264Z,8.62
2018-02-20T14:24:50.233Z,8.62
2018-02-20T14:27:20.868Z,8.52
2018-02-20T14:29:51.797Z,8.32
2018-02-20T14:32:22.703Z,8.49
2018-02-20T14:34:53.652Z,8.67
2018-02-20T14:37:24.517Z,8.76
2018-02-20T14:40:08.763Z,8.70
2018-02-20T14:42:38.266Z,8.59
2018-02-20T14:45:07.376Z,8.53
2018-02-20T14:47:36.522Z,8.20
2018-02-20T14:50:05.631Z,8.03
2018-02-20T14:52:34.742Z,8.16
2018-02-20T14:55:03.983Z,8.46
2018-02-20T14:57:33.096Z,8.57
2018-02-20T15:00:03.677Z,8.26
2018-02-20T15:02:34.209Z,7.94
2018-02-20T15:05:04.952Z,7.76
2018-02-20T15:07:35.818Z,7.62
2018-02-20T15:10:06.698Z,7.36
2018-02-20T15:12:37.576Z,7.32
2018-02-20T15:15:08.540Z,7.19
2018-02-20T15:17:38.899Z,7.12
2018-02-20T15:20:09.813Z,7.01
2018-02-20T15:22:40.665Z,6.89
2018-02-20T15:25:12.048Z,6.78
2018-02-20T15:27:42.939Z,6.74
2018-02-20T15:30:13.812Z,6.65
2018-02-20T15:32:44.676Z,6.51
2018-02-20T15:35:15.868Z,6.60
2018-02-20T15:37:46.797Z,6.57
2018-02-20T15:40:17.665Z,6.47
2018-02-20T15:42:48.677Z,6.34
2018-02-20T15:45:19.689Z,6.15
2018-02-20T15:47:50.501Z,5.96
2018-02-20T15:50:21.876Z,5.96
2018-02-20T15:52:52.654Z,5.99
2018-02-20T15:55:23.092Z,6.04
2018-02-20T15:57:53.826Z,5.93
2018-02-20T16:00:24.728Z,5.95
2018-02-20T16:02:55.557Z,5.72
2018-02-20T16:05:27.025Z,5.61
2018-02-20T16:07:57.699Z,5.51
2018-02-20T16:10:28.652Z,5.47
2018-02-20T16:12:59.501Z,5.49
2018-02-20T16:15:29.633Z,5.43
2018-02-20T16:18:00.912Z,5.39
2018-02-20T16:20:31.799Z,5.38
2018-02-20T16:23:03.335Z,5.34
2018-02-20T16:25:33.826Z,5.21
2018-02-20T16:28:04.309Z,5.21
2018-02-20T16:30:34.966Z,5.17
2018-02-20T16:33:05.832Z,5.08
2018-02-20T16:35:36.906Z,5.11
2018-02-20T16:38:07.413Z,5.04
2018-02-20T16:40:37.960Z,4.97
2018-02-20T16:43:08.871Z,4.98
2018-02-20T16:45:39.845Z,4.99
2018-02-20T16:48:10.709Z,4.97
2018-02-20T16:50:41.699Z,4.94
2018-02-20T16:53:12.574Z,4.91
2018-02-20T16:55:43.969Z,4.89
2018-02-20T16:58:14.799Z,4.86
2018-02-20T17:00:45.442Z,4.84
2018-02-20T17:03:17.197Z,4.81
2018-02-20T17:05:47.967Z,4.78
2018-02-20T17:08:18.545Z,4.74
2018-02-20T17:10:49.004Z,4.70
2018-02-20T17:13:19.896Z,4.66
2018-02-20T17:15:50.792Z,4.58
2018-02-20T17:18:21.713Z,4.53
2018-02-20T17:20:52.721Z,4.48
2018-02-20T17:23:23.582Z,4.43
2018-02-20T17:25:55.040Z,4.38
2018-02-20T17:28:25.894Z,4.35
2018-02-20T17:30:56.830Z,4.30
2018-02-20T17:33:27.993Z,4.26
2018-02-20T17:35:58.940Z,4.20
2018-02-20T17:38:29.452Z,4.16
2018-02-20T17:41:00.178Z,4.13
2018-02-20T17:43:31.128Z,4.11
2018-02-20T17:46:02.004Z,4.06
2018-02-20T17:48:33.110Z,4.02
2018-02-20T17:51:06.842Z,3.93
2018-02-20T17:53:36.157Z,3.92
2018-02-20T17:56:06.516Z,3.86
2018-02-20T17:58:37.116Z,3.80
2018-02-20T18:01:07.588Z,3.76
2018-02-20T18:03:38.052Z,3.74
2018-02-20T18:06:08.901Z,3.71
2018-02-20T18:08:39.748Z,3.68
2018-02-20T18:11:12.109Z,3.66
2018-02-20T18:13:41.915Z,3.62
2018-02-20T18:16:12.487Z,3.59
2018-02-20T18:18:42.956Z,3.55
2018-02-20T18:21:14.248Z,3.53
2018-02-20T18:23:45.193Z,3.45
2018-02-20T18:26:16.804Z,3.47
2018-02-20T18:28:47.500Z,3.42
2018-02-20T18:31:18.436Z,3.40
2018-02-20T18:33:48.943Z,3.37
2018-02-20T18:36:19.936Z,3.36
2018-02-20T18:38:49.709Z,3.33
2018-02-20T18:41:20.795Z,3.30
2018-02-20T18:43:51.745Z,3.27
2018-02-20T18:46:22.723Z,3.22
2018-02-20T18:48:53.218Z,3.19
2018-02-20T18:51:24.509Z,3.15
2018-02-20T18:53:54.951Z,3.10
2018-02-20T18:56:25.589Z,3.07
2018-02-20T18:58:55.986Z,3.04
2018-02-20T19:01:26.613Z,3.00
2018-02-20T19:03:59.527Z,2.98
2018-02-20T19:06:29.444Z,2.96
2018-02-20T19:08:59.337Z,2.92
2018-02-20T19:11:29.913Z,2.89
2018-02-20T19:14:00.828Z,2.85
2018-02-20T19:16:32.588Z,2.80
2018-02-20T19:19:02.260Z,2.75
2018-02-20T19:21:33.497Z,2.71
2018-02-20T19:24:03.698Z,2.66
2018-02-20T19:26:34.278Z,2.63
2018-02-20T19:29:04.448Z,2.59
2018-02-20T19:31:34.352Z,2.35
2018-02-20T19:34:05.786Z,2.53
2018-02-20T19:36:36.464Z,2.47
2018-02-20T19:39:06.962Z,2.44
2018-02-20T19:41:37.572Z,2.42
2018-02-20T19:44:08.029Z,2.40
2018-02-20T19:46:39.031Z,2.40
2018-02-20T19:49:09.903Z,2.37
2018-02-20T19:51:40.913Z,2.33
2018-02-20T19:54:11.468Z,2.27
2018-02-20T19:56:42.049Z,2.23
2018-02-20T19:59:12.427Z,2.20
2018-02-20T20:01:43.059Z,2.15
2018-02-20T20:04:13.905Z,2.13
2018-02-20T20:06:44.800Z,2.10
2018-02-20T20:09:15.199Z,2.08
2018-02-20T20:11:46.003Z,2.06
2018-02-20T20:14:16.864Z,2.03
2018-02-20T20:16:47.878Z,2.02
2018-02-20T20:19:19.225Z,1.97
2018-02-20T20:21:49.964Z,1.95
2018-02-20T20:24:20.882Z,1.92
2018-02-20T20:26:51.500Z,1.90
2018-02-20T20:29:23.120Z,1.87
2018-02-20T20:31:53.699Z,1.86
2018-02-20T20:34:24.275Z,1.82
2018-02-20T20:36:54.924Z,1.76
2018-02-20T20:39:25.792Z,1.75
2018-02-20T20:41:56.759Z,1.72
2018-02-20T20:44:28.123Z,1.66
2018-02-20T20:46:59.284Z,1.62
2018-02-20T20:49:29.978Z,1.59
2018-02-20T20:52:00.944Z,1.55
2018-02-20T20:54:32.179Z,1.45
2018-02-20T20:57:04.989Z,1.44
2018-02-20T20:59:34.169Z,1.43
2018-02-20T21:02:04.099Z,1.41
2018-02-20T21:04:35.031Z,1.38
2018-02-20T21:07:05.860Z,1.37
2018-02-20T21:09:36.763Z,1.34
2018-02-20T21:12:07.657Z,1.33
2018-02-20T21:14:39.027Z,1.32
2018-02-20T21:17:08.973Z,1.30
2018-02-20T21:19:39.571Z,1.27
2018-02-20T21:22:10.191Z,1.25
2018-02-20T21:24:41.484Z,1.22
2018-02-20T21:27:12.857Z,1.19
2018-02-20T21:29:43.784Z,1.18
2018-02-20T21:32:14.612Z,1.15
2018-02-20T21:34:45.951Z,1.09
2018-02-20T21:37:16.785Z,1.08
2018-02-20T21:39:47.680Z,1.07
2018-02-20T21:42:18.547Z,1.07
2018-02-20T21:44:49.888Z,1.04
2018-02-20T21:47:20.716Z,1.03
2018-02-20T21:49:51.651Z,1.02
2018-02-20T21:52:22.571Z,0.98
2018-02-20T21:54:53.974Z,0.96
2018-02-20T21:57:24.804Z,0.92
2018-02-20T21:59:55.705Z,0.91
2018-02-20T22:02:26.572Z,0.89
2018-02-20T22:04:58.044Z,0.85
2018-02-20T22:07:28.808Z,0.83
2018-02-20T22:09:59.245Z,0.80
2018-02-20T22:12:29.823Z,0.77
2018-02-20T22:15:00.782Z,0.75
2018-02-20T22:17:31.288Z,0.73
2018-02-20T22:20:02.032Z,0.71
2018-02-20T22:22:32.908Z,0.67
2018-02-20T22:25:03.491Z,0.65
2018-02-20T22:27:33.999Z,0.64
2018-02-20T22:30:04.945Z,0.62
2018-02-20T22:32:35.880Z,0.60
2018-02-20T22:35:06.799Z,0.57
2018-02-20T22:37:37.300Z,0.57
2018-02-20T22:40:07.936Z,0.53
2018-02-20T22:42:38.792Z,0.51
2018-02-20T22:45:09.767Z,0.48
2018-02-20T22:47:41.224Z,0.48
2018-02-20T22:50:11.583Z,0.44
2018-02-20T22:52:42.108Z,0.42
2018-02-20T22:55:12.889Z,0.38
2018-02-20T22:57:43.352Z,0.38
2018-02-20T23:00:14.014Z,0.37
2018-02-20T23:02:44.900Z,0.29
2018-02-20T23:05:15.869Z,0.29
2018-02-20T23:07:46.691Z,0.29
2018-02-20T23:10:17.645Z,0.28
2018-02-20T23:12:48.513Z,0.26
2018-02-20T23:15:19.956Z,0.25
2018-02-20T23:17:50.792Z,0.23
2018-02-20T23:20:21.675Z,0.21
2018-02-20T23:22:52.940Z,0.19
2018-02-20T23:25:25.046Z,0.18
2018-02-20T23:27:55.763Z,0.18
2018-02-20T23:30:26.283Z,0.17
2018-02-20T23:32:56.854Z,0.15
2018-02-20T23:35:27.447Z,0.13
2018-02-20T23:37:57.891Z,0.12
2018-02-20T23:40:28.837Z,0.11
2018-02-20T23:42:59.678Z,0.09
2018-02-20T23:45:30.945Z,0.06
2018-02-20T23:48:01.784Z,0.05
2018-02-20T23:50:32.668Z,0.05
2018-02-20T23:53:03.911Z,0.00
2018-02-20T23:55:34.803Z,-0.01
2018-02-20T23:58:05.650Z,-0.02
